• Join FlightAware (Why Join?)
  • Login
  • US Flag 
08:53PM EDT


 

Airport Tracker/Info


-or-


 

Live Flight TrackerFlight Track Log ✈ SWA2236 ✈ 12-Jul-2013 ✈ KABQ - KOAK

Flight Track Log - Related Links

Times and Time Zones

All times are in EDT time to prevent confusion due to time zone crossing. See the SWA2236 flight status page for this flight to view local times or setup timezone preferences in your user account.

Time Position Orientation Groundspeed Altitude Reporting Facility
EDT Latitude Longitude Course Direction KTS MPH feet Rate Location/Type
09:16AM 35.0744 -106.5117 67° East 234 269 8,200  Level Albuquerque Center
09:17AM 35.1000 -106.5675 299° West 239 275 10,500 1,860 Climbing Albuquerque Center
09:18AM 35.1153 -106.6544 282° West 249 287 11,800 1,380 Climbing Albuquerque Center
09:19AM 35.1333 -106.7658 281° West 326 375 13,400 2,040 Climbing Albuquerque Center
09:20AM 35.1519 -106.8831 281° West 358 412 16,000 2,940 Climbing Albuquerque Center
09:21AM 35.1731 -107.0206 281° West 371 427 19,400 3,000 Climbing Albuquerque Center
09:22AM 35.1917 -107.1275 282° West 340 391 22,200 2,100 Climbing Albuquerque Center
09:23AM 35.2122 -107.2708 280° West 385 443 23,700 1,320 Climbing Albuquerque Center
09:24AM 35.2281 -107.4086 278° West 404 465 25,000 1,380 Climbing Albuquerque Center
09:25AM 35.2461 -107.5456 279° West 426 490 26,600 1,680 Climbing Albuquerque Center
09:26AM 35.2644 -107.7133 278° West 441 507 28,400 1,440 Climbing Albuquerque Center
09:27AM 35.2842 -107.8606 279° West 453 521 29,600 1,140 Climbing Albuquerque Center
09:28AM 35.3008 -108.0125 278° West 463 533 30,800 1,440 Climbing Albuquerque Center
09:29AM 35.3217 -108.1928 278° West 472 543 32,600 1,620 Climbing Albuquerque Center
09:30AM 35.3389 -108.3469 278° West 476 548 34,100 1,500 Climbing Albuquerque Center
09:31AM 35.3750 -108.4942 287° West 470 541 35,700 1,380 Climbing Albuquerque Center
09:32AM 35.4203 -108.6656 288° West 470 541 37,000 1,080 Climbing Albuquerque Center
09:33AM 35.4589 -108.8111 288° West 467 537 38,000 480 Climbing Albuquerque Center
09:34AM 35.4803 -108.9608 280° West 459 528 38,000  Level Albuquerque Center
09:35AM 35.4969 -109.1356 277° West 460 529 38,000  Level Albuquerque Center
09:36AM 35.5139 -109.2853 278° West 460 529 38,000  Level Albuquerque Center
09:37AM 35.5319 -109.4344 279° West 459 528 38,000  Level Albuquerque Center
09:38AM 35.5475 -109.6083 276° West 458 527 38,000  Level Albuquerque Center
09:39AM 35.5633 -109.7561 278° West 457 526 38,000  Level Albuquerque Center
09:40AM 35.5789 -109.9047 277° West 456 525 38,000  Level Albuquerque Center
09:41AM 35.5967 -110.0800 277° West 461 531 38,000  Level Albuquerque Center
09:42AM 35.6108 -110.2286 277° West 460 529 38,000  Level Albuquerque Center
09:43AM 35.6247 -110.3764 277° West 456 525 38,000  Level Albuquerque Center
09:44AM 35.6439 -110.5494 278° West 456 525 38,000  Level Albuquerque Center
09:45AM 35.6581 -110.6978 277° West 456 525 38,000  Level Albuquerque Center
09:46AM 35.6750 -110.8708 277° West 457 526 38,000  Level Albuquerque Center
09:47AM 35.6886 -111.0194 276° West 456 525 38,000  Level Albuquerque Center
09:48AM 35.7039 -111.1694 277° West 460 529 38,000  Level Albuquerque Center
09:49AM 35.7194 -111.3419 276° West 457 526 38,000  Level Albuquerque Center
09:50AM 35.7353 -111.5014 277° West 459 528 38,000  Level Albuquerque Center
09:51AM 35.7494 -111.6544 277° West 457 526 38,000  Level Albuquerque Center
09:52AM 35.7633 -111.8058 276° West 452 520 38,000  Level Albuquerque Center
09:53AM 35.7758 -111.9553 276° West 447 514 38,000  Level Albuquerque Center
09:54AM 35.7892 -112.1053 276° West 445 512 38,000  Level Los Angeles Center
09:55AM 35.8019 -112.2542 276° West 443 510 38,000  Level Los Angeles Center
09:56AM 35.8178 -112.4342 276° West 445 512 38,000  Level Los Angeles Center
09:57AM 35.8297 -112.5842 276° West 447 514 38,000  Level Los Angeles Center
09:59AM 35.8425 -112.7347 276° West 449 517 38,000  Level Los Angeles Center
10:00AM 35.8550 -112.8858 276° West 449 517 38,000  Level Los Angeles Center
10:01AM 35.8669 -113.0383 276° West 453 521 38,000  Level Los Angeles Center
10:02AM 35.8806 -113.2214 275° West 455 524 38,000  Level Los Angeles Center
10:03AM 35.8886 -113.3731 274° West 449 517 38,000  Level Los Angeles Center
10:04AM 35.9022 -113.5233 276° West 446 513 38,000  Level Los Angeles Center
10:05AM 35.9158 -113.6911 276° West 439 505 38,000  Level Los Angeles Center
10:06AM 35.9275 -113.8422 275° West 441 507 38,000  Level Los Angeles Center
10:07AM 35.9378 -113.9936 275° West 441 507 38,000  Level Los Angeles Center
10:08AM 35.9481 -114.1439 275° West 440 506 38,000  Level Los Angeles Center
10:09AM 35.9581 -114.2958 275° West 442 509 38,000  Level Los Angeles Center
10:10AM 35.9692 -114.4467 275° West 440 506 38,000  Level Los Angeles Center
10:11AM 35.9786 -114.5958 275° West 434 499 38,000  Level Los Angeles Center
10:12AM 35.9994 -114.7744 278° West 434 499 38,000  Level Los Angeles Center
10:13AM 36.0522 -114.9167 295° West 453 521 38,000  Level Los Angeles Center
10:14AM 36.1017 -115.0606 293° West 454 522 38,000  Level Los Angeles Center
10:15AM 36.1508 -115.2042 293° West 454 522 38,000  Level Los Angeles Center
10:16AM 36.2017 -115.3494 293° West 456 525 38,000  Level Los Angeles Center
10:17AM 36.2508 -115.4939 293° West 452 520 38,000  Level Los Angeles Center
10:18AM 36.3025 -115.6531 292° West 465 535 38,000  Level Los Angeles Center
10:19AM 36.3531 -115.7975 294° West 457 526 38,000  Level Los Angeles Center
10:20AM 36.3983 -115.9294 293° West 446 513 38,000  Level Los Angeles Center
10:21AM 36.4561 -116.1006 293° West 446 513 38,000  Level Los Angeles Center
10:22AM 36.5008 -116.2344 293° West 447 514 38,000  Level Los Angeles Center
10:23AM 36.5517 -116.3864 293° West 448 516 38,000  Level Los Angeles Center
10:24AM 36.5983 -116.5289 292° West 446 513 38,000  Level Los Angeles Center
10:25AM 36.6456 -116.6733 292° West 449 517 38,000  Level Los Angeles Center
10:26AM 36.6939 -116.8186 293° West 451 519 38,000  Level Los Angeles Center
10:27AM 36.7461 -116.9783 292° West 449 517 38,000  Level Los Angeles Center
10:28AM 36.7969 -117.1408 291° West 457 526 38,000  Level Los Angeles Center
10:29AM 36.8439 -117.2864 292° West 453 521 38,000  Level Los Angeles Center
10:30AM 36.8908 -117.4311 292° West 450 518 38,000  Level Los Angeles Center
10:31AM 36.9372 -117.5767 292° West 450 518 38,000  Level Los Angeles Center
10:32AM 36.9719 -117.6922 291° West 447 514 38,000  Level Oakland Center
10:33AM 37.0172 -117.8356 292° West 443 510 38,000  Level Oakland Center
10:34AM 37.0625 -117.9786 292° West 442 509 38,000  Level Oakland Center
10:35AM 37.1078 -118.1217 292° West 441 507 38,000  Level Oakland Center
10:36AM 37.1508 -118.2642 291° West 437 503 38,000  Level Oakland Center
10:37AM 37.1956 -118.4078 291° West 440 506 38,000  Level Oakland Center
10:38AM 37.2400 -118.5506 291° West 440 506 38,000  Level Oakland Center
10:39AM 37.2825 -118.6928 291° West 438 504 38,000  Level Oakland Center
10:40AM 37.3350 -118.8644 291° West 440 506 38,000  Level Oakland Center
10:41AM 37.3792 -119.0078 291° West 441 507 38,000  Level Oakland Center
10:42AM 37.4222 -119.1517 291° West 442 509 38,000  Level Oakland Center
10:43AM 37.4647 -119.2950 291° West 440 506 38,000  Level Oakland Center
10:44AM 37.5072 -119.4381 291° West 439 505 38,000  Level Oakland Center
10:46AM 37.5525 -119.5889 291° West 440 506 38,000  Level Oakland Center
10:47AM 37.5950 -119.7317 291° West 433 498 38,000  Level Oakland Center
10:48AM 37.6367 -119.8731 290° West 429 494 38,000 -1,080 Level Oakland Center
10:49AM 37.6778 -120.0150 290° West 430 495 35,900 -2,640 Descending Oakland Center
10:50AM 37.7189 -120.1592 290° West 436 502 32,700 -2,880 Descending Oakland Center
10:51AM 37.7622 -120.3056 291° West 443 510 30,000 -2,760 Descending Oakland Center
10:52AM 37.8117 -120.4753 290° West 428 493 27,100 -2,520 Descending Oakland Center
10:53AM 37.8500 -120.6136 289° West 418 481 24,900 -2,160 Descending Oakland Center
10:54AM 37.8594 -120.7497 275° West 398 458 22,700 -2,220 Descending Oakland Center
10:55AM 37.8433 -120.8828 261° West 385 443 20,400 -2,580 Descending Oakland Center
10:56AM 37.8122 -121.0133 253° West 389 448 17,500 -2,280 Descending Oakland Center
10:57AM 37.7819 -121.1392 253° West 376 433 15,800 -1,920 Descending Oakland Center
10:58AM 37.7536 -121.2564 253° West 354 407 13,700 -1,860 Descending Oakland Center
10:59AM 37.7167 -121.3833 250° West 333 383 12,000 -1,560 Descending Northern Cal TRACON
11:00AM 37.7000 -121.5000 260° West 301 346 10,600 -1,200 Descending Northern Cal TRACON
11:01AM 37.6667 -121.5833 243° Southwest 268 308 9,600 -1,020 Descending Northern Cal TRACON
11:02AM 37.6333 -121.6333 230° Southwest 240 276 8,700 -1,080 Descending Northern Cal TRACON
11:03AM 37.5833 -121.6667 208° Southwest 226 260 7,700 -900 Descending Northern Cal TRACON
11:04AM 37.6167 -121.7333 302° West 223 257 7,000 -360 Descending Northern Cal TRACON
11:05AM 37.6667 -121.7833 322° Northwest 221 254 7,000 -360 Level Northern Cal TRACON
11:06AM 37.7000 -121.8333 310° West 220 253 6,400 -540 Descending Northern Cal TRACON
11:07AM 37.6667 -121.8667 218° Southwest 216 249 6,000 -720 Descending Northern Cal TRACON
11:07AM 37.6333 -121.9000 218° Southwest 209 241 5,100 -1,080 Descending Northern Cal TRACON
11:08AM 37.5833 -121.9500 218° Southwest 201 231 4,000 -660 Descending Northern Cal TRACON
11:09AM 37.5667 -122.0000 247° West 204 235 3,900 -540 Descending Northern Cal TRACON
11:10AM 37.6000 -122.0667 302° West 200 230 3,000 -900 Descending Northern Cal TRACON
11:11AM 37.6333 -122.1167 310° West 180 207 2,100 -900 Descending Northern Cal TRACON
11:12AM 37.6667 -122.1500 322° Northwest 142 163 1,300 -840 Descending Northern Cal TRACON
11:13AM 37.6833 -122.1833 302° West 137 158 500 -660 Descending Northern Cal TRACON
11:14AM 37.7000 -122.2167 302° West 137 158 100 -480 Descending Northern Cal TRACON